createdAt,value
2019-05-18T00:07:51.087Z,16.40
2019-05-18T00:17:59.656Z,16.50
2019-05-18T00:28:06.059Z,16.60
2019-05-18T00:38:16.198Z,16.40
2019-05-18T00:48:23.930Z,16.30
2019-05-18T00:58:30.788Z,16.20
2019-05-18T01:08:38.342Z,16.10
2019-05-18T01:18:46.380Z,16.00
2019-05-18T01:28:56.442Z,16.00
2019-05-18T01:39:03.728Z,15.90
2019-05-18T01:49:10.026Z,15.90
2019-05-18T01:59:16.035Z,16.20
2019-05-18T02:09:22.075Z,16.30
2019-05-18T02:19:28.837Z,16.50
2019-05-18T02:29:34.770Z,16.40
2019-05-18T02:39:45.225Z,16.30
2019-05-18T02:49:51.354Z,16.10
2019-05-18T02:59:59.190Z,15.80
2019-05-18T03:10:05.433Z,15.90
2019-05-18T03:20:13.903Z,15.80
2019-05-18T03:30:23.375Z,15.80
2019-05-18T03:40:40.193Z,16.10
2019-05-18T03:50:47.717Z,16.20
2019-05-18T04:00:57.269Z,16.50
2019-05-18T04:11:03.050Z,16.80
2019-05-18T04:21:09.737Z,17.10
2019-05-18T04:31:19.982Z,17.20
2019-05-18T04:41:27.814Z,17.30
2019-05-18T04:51:33.940Z,17.40
2019-05-18T05:01:41.220Z,17.10
2019-05-18T05:11:47.145Z,16.80
2019-05-18T05:21:53.167Z,16.20
2019-05-18T05:32:00.251Z,15.80
2019-05-18T05:42:09.556Z,15.70
2019-05-18T05:52:18.381Z,15.70
2019-05-18T06:02:24.677Z,15.60
2019-05-18T06:12:30.459Z,15.60
2019-05-18T06:22:37.273Z,15.60
2019-05-18T06:32:45.889Z,15.80
2019-05-18T06:42:52.588Z,15.90
2019-05-18T06:53:03.836Z,16.10
2019-05-18T07:03:11.037Z,16.10
2019-05-18T07:13:20.608Z,16.40
2019-05-18T07:23:27.503Z,16.60
2019-05-18T07:33:33.889Z,16.60
2019-05-18T07:43:39.944Z,16.20
2019-05-18T07:53:48.637Z,15.80
2019-05-18T08:03:56.667Z,15.50
2019-05-18T08:14:03.481Z,15.40
2019-05-18T08:24:09.565Z,15.30
2019-05-18T08:34:16.652Z,15.70
2019-05-18T08:44:24.372Z,16.30
2019-05-18T08:54:31.938Z,16.90
2019-05-18T09:04:39.585Z,17.20
2019-05-18T09:14:45.708Z,17.30
2019-05-18T09:24:52.671Z,17.20
2019-05-18T09:34:58.479Z,17.20
2019-05-18T09:45:04.838Z,17.50
2019-05-18T09:55:11.287Z,17.70
2019-05-18T10:05:18.265Z,17.80
2019-05-18T10:15:26.183Z,18.30
2019-05-18T10:25:38.614Z,18.10
2019-05-18T10:35:44.957Z,18.60
2019-05-18T10:45:53.442Z,19.00
2019-05-18T10:56:07.032Z,19.20
2019-05-18T11:06:16.973Z,19.60
2019-05-18T11:16:28.591Z,19.80
2019-05-18T11:26:41.011Z,20.10
2019-05-18T11:36:51.555Z,20.40
2019-05-18T11:47:01.176Z,20.60
2019-05-18T11:57:10.242Z,20.60
2019-05-18T12:07:19.044Z,21.10
2019-05-18T12:17:26.294Z,21.00
2019-05-18T12:27:34.352Z,21.10
2019-05-18T12:37:43.265Z,21.60
2019-05-18T12:47:50.512Z,21.80
2019-05-18T12:57:57.907Z,22.20
2019-05-18T13:08:05.757Z,23.10
2019-05-18T13:18:18.276Z,23.30
2019-05-18T13:28:26.681Z,23.50
2019-05-18T13:38:33.425Z,23.50
2019-05-18T13:48:45.190Z,23.60
2019-05-18T13:58:51.825Z,23.70
2019-05-18T14:08:58.682Z,23.50
2019-05-18T14:19:06.118Z,23.60
2019-05-18T14:29:19.571Z,23.60
2019-05-18T14:39:26.137Z,23.60
2019-05-18T14:49:33.347Z,23.70
2019-05-18T14:59:41.621Z,23.70
2019-05-18T15:09:50.135Z,23.60
2019-05-18T15:19:59.644Z,24.00
2019-05-18T15:30:12.720Z,24.30
2019-05-18T15:40:24.719Z,24.60
2019-05-18T15:50:32.924Z,24.40
2019-05-18T16:00:39.611Z,23.50
2019-05-18T16:10:46.204Z,23.00
2019-05-18T16:34:05.721Z,22.70
2019-05-18T16:44:18.268Z,22.40
2019-05-18T17:06:23.324Z,21.30
2019-05-18T17:16:31.268Z,20.90
2019-05-18T17:26:51.725Z,20.70
2019-05-18T17:36:46.174Z,20.30
2019-05-18T17:58:47.156Z,20.00
2019-05-18T18:08:55.598Z,19.90
2019-05-18T18:19:01.857Z,19.90
2019-05-18T18:29:08.079Z,19.70
2019-05-18T18:39:16.435Z,19.40
2019-05-18T18:49:22.953Z,19.20
2019-05-18T18:59:29.460Z,19.10
2019-05-18T19:09:35.678Z,19.00
2019-05-18T19:19:43.516Z,19.00
2019-05-18T19:29:49.900Z,18.90
2019-05-18T19:39:56.407Z,19.00
2019-05-18T19:50:02.216Z,18.90
2019-05-18T20:00:11.373Z,18.80
2019-05-18T20:10:17.436Z,18.60
2019-05-18T20:43:45.497Z,18.60
2019-05-18T20:53:54.079Z,18.60
2019-05-18T21:03:59.687Z,18.50
2019-05-18T21:14:05.877Z,18.40
2019-05-18T21:24:12.247Z,18.30
2019-05-18T21:34:20.671Z,18.30
2019-05-18T21:44:27.418Z,18.20
2019-05-18T21:54:34.887Z,18.20
2019-05-18T22:04:42.489Z,18.10
2019-05-18T22:14:48.811Z,18.10
2019-05-18T22:24:56.026Z,18.00
2019-05-18T22:35:03.039Z,17.80
2019-05-18T22:45:09.015Z,17.70
2019-05-18T22:55:15.342Z,17.60
2019-05-18T23:05:21.916Z,17.50
2019-05-18T23:15:31.287Z,17.40
2019-05-18T23:25:38.361Z,17.40
2019-05-18T23:35:46.469Z,17.30
2019-05-18T23:45:52.744Z,17.20
2019-05-18T23:55:58.620Z,17.20
